Weather reports worldwide

Advertisment
Ross-on-Wye, United Kingdom (99207): temperature & dewpoint: 16.07.2019 03:00:00 - 22.07.2019 03:00:00 (BST)Ross-on-Wye, United Kingdom (99207): temperature -20cm: 16.07.2019 03:00:00 - 22.07.2019 03:00:00 (BST)Ross-on-Wye, United Kingdom (99207): wind speed & gusts: 16.07.2019 03:00:00 - 22.07.2019 03:00:00 (BST)Ross-on-Wye, United Kingdom (99207): wind direction: 16.07.2019 03:00:00 - 22.07.2019 03:00:00 (BST)Ross-on-Wye, United Kingdom (99207): sunshine duration: 16.07.2019 03:00:00 - 22.07.2019 03:00:00 (BST)Ross-on-Wye, United Kingdom (99207): precipitation: 16.07.2019 03:00:00 - 22.07.2019 03:00:00 (BST)
Date & Time tt [°C] td [°C] tt -20cm [°C] ff [km/h] ff [kn] fx [km/h] fx [kn] dd sd [min] rr [mm]
22.07.2019 03:00:00 - - - - - - - - - -
22.07.2019 02:00:00 18,2 15,0 - 16 9 - - SW 0 0,0
22.07.2019 01:00:00 18,3 15,0 - 11 6 - - SW - 0,0
22.07.2019 00:00:00 18,2 14,5 - 9 5 - - SSW 0 0,0
21.07.2019 23:00:00 17,8 14,0 - 9 5 - - SSW 0 0,0
21.07.2019 22:00:00 18,6 14,3 - 13 7 - - SW 0 0,0
21.07.2019 21:00:00 19,6 14,3 - 11 6 - - SSW 0 0,0
21.07.2019 20:00:00 20,7 14,2 - 11 6 - - SSW 0 0,0
21.07.2019 19:00:00 21,3 14,0 - 15 8 - - SW 0 0,0
21.07.2019 18:00:00 21,4 14,2 - 15 8 - - SW 18 0,0
21.07.2019 17:00:00 22,0 14,3 - 13 7 - - SW 6 0,0
21.07.2019 16:00:00 21,5 14,3 - 11 6 - - SSW 6 0,0
21.07.2019 15:00:00 21,6 13,1 - 15 8 - - SW 6 0,0
21.07.2019 14:00:00 21,1 13,0 - 11 6 - - SW 6 0,0
21.07.2019 13:00:00 19,2 13,2 - 11 6 - - SSW 6 0,0
21.07.2019 12:00:00 19,0 13,1 - 11 6 - - SW 0 0,0
21.07.2019 11:00:00 18,4 12,4 - 13 7 - - SW 0 0,0
21.07.2019 10:00:00 18,5 13,5 17,7 11 6 - - SW 0 0,0
21.07.2019 09:00:00 17,1 14,1 - 13 7 - - SW 18 0,0
21.07.2019 08:00:00 15,5 13,4 - 2 1 - - SW 0 0,0
21.07.2019 07:00:00 14,3 12,5 - 2 1 - - SSW 6 0,0
21.07.2019 06:00:00 13,1 11,8 - 8 4 - - SW 0 0,0
21.07.2019 05:00:00 12,5 11,1 - 4 2 - - SW 0 0,0
21.07.2019 04:00:00 12,5 11,0 - 5 3 - - S 0 0,0
21.07.2019 03:00:00 13,2 11,1 - 4 2 - - S 0 0,0
21.07.2019 02:00:00 13,8 11,4 - 11 6 - - SW 0 0,0
21.07.2019 01:00:00 14,4 11,7 - 8 4 - - SW - 0,0
21.07.2019 00:00:00 15,7 12,3 - 8 4 - - SW 0 0,0
20.07.2019 23:00:00 16,5 12,8 - 8 4 - - SW 0 0,0
20.07.2019 22:00:00 17,2 12,5 - 4 2 - - WSW 0 0,0
20.07.2019 21:00:00 17,8 11,8 - 8 4 - - W 6 0,0
20.07.2019 20:00:00 18,5 11,9 - 9 5 - - WNW 42 0,0
20.07.2019 19:00:00 19,1 12,9 - 15 8 - - W 6 0,0
20.07.2019 18:00:00 19,9 13,2 - 16 9 - - W 12 0,0
20.07.2019 17:00:00 20,1 13,8 - 15 8 - - WSW 18 0,0
20.07.2019 16:00:00 19,5 14,1 - 18 10 - - WSW 12 0,0
20.07.2019 15:00:00 18,3 14,0 - 21 11 - - WSW 6 0,0
20.07.2019 14:00:00 18,7 13,6 - 22 12 - - WSW 6 0,0
20.07.2019 13:00:00 18,8 14,0 - 16 9 - - WSW 0 0,0
20.07.2019 12:00:00 18,8 13,4 - 16 9 - - WSW 6 0,0
20.07.2019 11:00:00 18,7 13,9 - 16 9 - - SW 30 0,0
20.07.2019 10:00:00 17,2 14,0 17,7 15 8 - - WSW 0 0,0
20.07.2019 09:00:00 16,9 13,6 - 16 9 - - SW 0 0,0
20.07.2019 08:00:00 16,7 15,0 - 9 5 - - WSW 18 0,0
20.07.2019 07:00:00 16,3 14,3 - 15 8 - - SW 6 0,0
20.07.2019 06:00:00 16,2 14,9 - 15 8 - - SSW 0 0,0
20.07.2019 05:00:00 16,1 14,9 - 13 7 - - SSW 0 0,4
20.07.2019 04:00:00 16,6 16,0 - 9 5 - - WSW 0 5,4
20.07.2019 03:00:00 16,9 15,7 - 8 4 - - S 0 0,2
20.07.2019 02:00:00 17,0 15,7 - 9 5 - - SSW 0 0,0
20.07.2019 01:00:00 17,0 15,8 - 9 5 - - S - 0,0
20.07.2019 00:00:00 16,6 15,9 - 8 4 - - SSW 0 0,2
19.07.2019 23:00:00 16,0 15,3 - 4 2 - - SSW 0 0,0
19.07.2019 22:00:00 15,9 15,1 - 9 5 - - SW 0 1,0
19.07.2019 21:00:00 16,7 15,2 - 13 7 - - SW 0 0,2
19.07.2019 20:00:00 16,9 15,4 - 8 4 - - SSW 0 0,0
19.07.2019 19:00:00 17,0 15,7 - 9 5 - - SW 0 0,4
19.07.2019 18:00:00 17,4 16,2 - 11 6 - - SW 0 1,6
19.07.2019 17:00:00 18,5 17,0 - 15 8 - - SW 0 0,6
19.07.2019 16:00:00 19,5 17,3 - 15 8 - - SW 0 0,4
19.07.2019 15:00:00 20,1 17,6 - 11 6 - - SW 0 0,0
19.07.2019 14:00:00 19,6 18,5 - 11 6 - - SSW 0 0,2
19.07.2019 13:00:00 18,9 16,9 - 15 8 - - SSW 0 0,0
19.07.2019 12:00:00 16,8 15,6 - 9 5 - - SSW 6 0,0
19.07.2019 11:00:00 15,8 14,7 - 18 10 46 25 S 0 3,0
19.07.2019 10:00:00 14,9 14,0 18,5 9 5 - - S 0 2,4
19.07.2019 09:00:00 14,8 13,6 - 8 4 - - S 0 0,2
19.07.2019 08:00:00 14,5 13,2 - 5 3 - - SSE 0 0,0
19.07.2019 07:00:00 14,4 13,0 - 5 3 - - S 0 0,4
19.07.2019 06:00:00 15,0 12,8 - 5 3 - - S 0 0,0
19.07.2019 05:00:00 14,5 13,1 - 5 3 - - S 0 0,0
19.07.2019 04:00:00 13,5 11,9 - 4 2 - - SSW 0 0,0
19.07.2019 03:00:00 13,2 10,9 - 2 1 - - WSW 0 0,0
19.07.2019 02:00:00 13,6 10,9 - 5 3 - - SSW 0 0,0
19.07.2019 01:00:00 13,9 11,3 - 5 3 - - SSW - 0,0
19.07.2019 00:00:00 13,9 11,0 - 4 2 - - WSW 0 0,0
18.07.2019 23:00:00 15,0 11,0 - 8 4 - - SW 0 0,0
18.07.2019 22:00:00 16,2 10,9 - 9 5 - - SW 0 0,0
18.07.2019 21:00:00 17,8 10,4 - 11 6 - - WSW 18 0,0
18.07.2019 20:00:00 19,4 9,4 - 13 7 - - WSW 42 0,0
18.07.2019 19:00:00 20,3 10,9 - 13 7 - - WSW 24 0,0
18.07.2019 18:00:00 21,0 10,9 - 15 8 - - WSW 18 0,0
18.07.2019 17:00:00 20,9 11,1 - 15 8 - - WSW 6 0,0
18.07.2019 16:00:00 21,5 10,1 - 11 6 - - WSW 6 0,0
18.07.2019 15:00:00 20,6 9,7 - 11 6 - - WSW 6 0,0
18.07.2019 14:00:00 20,1 10,3 - 13 7 - - WSW 6 0,0
18.07.2019 13:00:00 20,2 9,6 - 13 7 - - W 30 0,0
18.07.2019 12:00:00 19,0 10,8 - 11 6 - - W 30 0,0
18.07.2019 11:00:00 16,8 10,9 - 11 6 - - W 0 0,0
18.07.2019 10:00:00 16,4 11,9 19,0 9 5 - - W 0 0,0
18.07.2019 09:00:00 16,8 12,0 - 11 6 - - W 0 0,2
18.07.2019 08:00:00 16,1 14,1 - 4 2 - - WNW 0 0,0
18.07.2019 07:00:00 15,7 13,9 - 8 4 - - W 0 0,0
18.07.2019 06:00:00 16,4 14,7 - 8 4 - - WSW 0 0,0
18.07.2019 05:00:00 16,3 14,4 - 5 3 - - SW 0 0,0
18.07.2019 04:00:00 16,4 14,7 - 9 5 - - SW 0 0,0
18.07.2019 03:00:00 16,5 14,3 - 11 6 - - SW 0 0,0
18.07.2019 02:00:00 16,4 13,8 - 11 6 - - SW 0 0,0
18.07.2019 01:00:00 16,7 13,2 - 9 5 - - SW - 0,0
18.07.2019 00:00:00 16,5 12,5 - 9 5 - - SSW 0 0,0
17.07.2019 23:00:00 16,7 11,9 - 8 4 - - SW 0 0,0
17.07.2019 22:00:00 17,4 11,7 - 15 8 - - SW 0 0,0
17.07.2019 21:00:00 18,3 11,1 - 15 8 - - SW 0 0,0
17.07.2019 20:00:00 19,2 11,8 - 11 6 - - SW 0 0,0
17.07.2019 19:00:00 19,2 12,6 - 9 5 - - WSW 0 0,0
17.07.2019 18:00:00 20,3 11,8 - 13 7 - - SW 0 0,0
17.07.2019 17:00:00 20,6 12,2 - 13 7 - - WSW 0 0,0
17.07.2019 16:00:00 22,8 11,5 - 13 7 - - WSW 42 0,0
17.07.2019 15:00:00 22,3 11,5 - 16 9 - - WSW 30 0,0
17.07.2019 14:00:00 21,5 11,0 - 15 8 - - WSW 6 0,0
17.07.2019 13:00:00 21,4 11,9 - 13 7 - - SW 0 0,0
17.07.2019 12:00:00 21,4 12,1 - 9 5 - - SW 0 0,0
17.07.2019 11:00:00 20,3 12,6 - 8 4 - - WSW 0 0,0
17.07.2019 10:00:00 19,3 14,0 19,2 5 3 - - SW 6 0,0
17.07.2019 09:00:00 17,3 14,4 - 4 2 - - WSW 24 0,0
17.07.2019 08:00:00 15,1 13,4 - 2 1 - - WNW 48 0,0
17.07.2019 07:00:00 12,7 12,0 - 4 2 - - WSW 0 0,0
17.07.2019 06:00:00 12,1 11,3 - 2 1 - - NE 0 0,0
17.07.2019 05:00:00 12,8 12,2 - 4 2 - - SW 0 0,0
17.07.2019 04:00:00 12,9 12,0 - 2 1 - - SW 0 0,0
17.07.2019 03:00:00 13,3 12,3 - 2 1 - - NNE 0 0,0
17.07.2019 02:00:00 13,8 12,5 - 0 0 - - N 0 0,0
17.07.2019 01:00:00 15,2 13,4 - 5 3 - - SW - 0,0
17.07.2019 00:00:00 15,6 13,9 - 2 1 - - WNW 0 0,0
16.07.2019 23:00:00 17,2 13,4 - 2 1 - - SSE 0 0,0
16.07.2019 22:00:00 18,4 12,8 - 2 1 - - S 0 0,0
16.07.2019 21:00:00 20,7 13,3 - 4 2 - - NNW 0 0,0
16.07.2019 20:00:00 22,4 13,7 - 4 2 - - NW 48 0,0
16.07.2019 19:00:00 22,4 13,9 - 4 2 - - WNW 0 0,0
16.07.2019 18:00:00 22,8 13,6 - 5 3 - - WNW 6 0,0
16.07.2019 17:00:00 22,6 12,7 - 5 3 - - W 0 0,0
16.07.2019 16:00:00 21,9 13,4 - 8 4 - - W 0 0,0
16.07.2019 15:00:00 24,0 12,5 - 11 6 - - SW 54 0,0
16.07.2019 14:00:00 23,2 13,2 - 9 5 - - SW 18 0,0
16.07.2019 13:00:00 22,5 12,4 - 5 3 - - SSE 36 0,0
16.07.2019 12:00:00 22,1 13,3 - 5 3 - - NE 36 0,0
16.07.2019 11:00:00 21,4 13,8 - 5 3 - - NW 54 0,0
16.07.2019 10:00:00 19,6 13,6 19,2 4 2 - - WNW 54 -
16.07.2019 09:00:00 17,6 14,0 - 4 2 - - SW 60 0,0
16.07.2019 08:00:00 15,7 13,7 - 4 2 - - SW 60 0,0
16.07.2019 07:00:00 13,7 12,5 - 2 1 - - WSW 6 0,0
16.07.2019 06:00:00 11,9 11,2 - 2 1 - - NW 0 0,0
16.07.2019 05:00:00 12,4 11,3 - 2 1 - - SE 0 0,0
16.07.2019 04:00:00 13,4 11,8 - 4 2 - - SW 0 0,0
16.07.2019 03:00:00 13,4 12,0 - 2 1 - - NNE 0 0,0

tt = temperature
td = dewpoint
tt -20cm = temperature -20cm
ff = wind speed
fx = gusts
dd = wind direction
sd = sunshine duration
rr = precipitation

Next stations